• Join FlightAware (Why Join?)
  • Login
  • US Flag 
06:56AM EDT


 

Airport Tracker/Info


-or-


 

Live Flight TrackerFlight Track Log ✈ VP-BLX ✈ 19-Apr-2014 ✈ UUEE / SVO - MDPC / PUJ

Flight Track Log - Related Links

Times and Time Zones

All times are in EDT time to prevent confusion due to time zone crossing. See the VP-BLX flight status page for this flight to view local times or setup timezone preferences in your user account.

Time Position Orientation Groundspeed Altitude Reporting Facility
EDT Latitude Longitude Course Direction KTS MPH feet Rate Location/Type
07:59PM 56.1040 37.0650 292° West  Level FlightAware Approximate
08:00PM 56.1475 36.8642 291° West  Level FlightAware Approximate
08:01PM 56.1907 36.6630 291° West  Level FlightAware Approximate
08:02PM 56.2336 36.4613 291° West  Level FlightAware Approximate
08:03PM 56.2761 36.2592 291° West  Level FlightAware Approximate
08:04PM 56.3184 36.0566 291° West  Level FlightAware Approximate
08:05PM 56.3602 35.8535 291° West  Level FlightAware Approximate
08:06PM 56.4018 35.6501 290° West  Level FlightAware Approximate
08:07PM 56.4430 35.4461 290° West  Level FlightAware Approximate
08:08PM 56.4839 35.2418 290° West  Level FlightAware Approximate
08:09PM 56.5245 35.0370 290° West  Level FlightAware Approximate
08:10PM 56.5647 34.8317 290° West  Level FlightAware Approximate
08:11PM 56.6046 34.6261 289° West  Level FlightAware Approximate
08:12PM 56.6441 34.4200 289° West  Level FlightAware Approximate
08:13PM 56.6833 34.2134 289° West  Level FlightAware Approximate
08:14PM 56.7222 34.0065 289° West  Level FlightAware Approximate
08:15PM 56.7607 33.7991 289° West  Level FlightAware Approximate
08:16PM 56.8002 33.5920 289° West  Level FlightAware Approximate
08:17PM 56.8395 33.3847 289° West  Level FlightAware Approximate
08:18PM 56.8786 33.1770 289° West  Level FlightAware Approximate
08:19PM 56.9173 32.9688 289° West  Level FlightAware Approximate
08:20PM 56.9556 32.7603 289° West  Level FlightAware Approximate
08:21PM 56.9936 32.5513 289° West  Level FlightAware Approximate
08:22PM 57.0312 32.3418 288° West  Level FlightAware Approximate
08:22PM 56.4373 32.5066 279° West 446 513 36,000  Level FlightAware ADS-B (EVDA / DGP)
08:23PM 56.4691 32.1348 279° West 446 513 36,000  Level FlightAware ADS-B (EVDA / DGP)
08:24PM 56.5041 32.1574 289° West  Level Estimated
08:24PM 56.4897 31.8859 278° West 447 514 36,000  Level FlightAware ADS-B (EVDA / DGP)
08:25PM 56.5023 31.7307 278° West 448 516 36,000  Level FlightAware ADS-B (EVDA / DGP)
08:26PM 56.5189 31.5220 278° West 450 518 36,000  Level FlightAware ADS-B (EVDA / DGP)
08:27PM 56.5339 31.3303 278° West 450 518 36,000  Level FlightAware ADS-B (EVDA / DGP)
08:28PM 56.5545 31.0594 278° West 451 519 36,000  Level FlightAware ADS-B (EVDA / DGP)
08:29PM 56.5710 30.8382 278° West 451 519 36,000  Level FlightAware ADS-B (EVDA / DGP)
08:30PM 56.5872 30.6156 277° West 450 518 36,000  Level FlightAware ADS-B (EVDA / DGP)
08:31PM 56.6031 30.3884 277° West 452 520 36,000  Level FlightAware ADS-B (EVDA / DGP)
08:32PM 56.6182 30.1706 277° West 454 522 36,000  Level FlightAware ADS-B (EVDA / DGP)
08:33PM 56.6338 29.9378 277° West 452 520 36,000  Level FlightAware ADS-B (EVDA / DGP)
08:34PM 56.6484 29.7162 277° West 453 521 36,000  Level FlightAware ADS-B (EVDA / DGP)
08:35PM 56.6630 29.4846 277° West 454 522 36,000  Level FlightAware ADS-B (EVDA / DGP)
08:36PM 56.6769 29.2586 276° West 452 520 36,000  Level FlightAware ADS-B (EVDA / DGP)
08:37PM 56.6902 29.0353 276° West 452 520 36,000  Level FlightAware ADS-B (EVDA / DGP)
08:38PM 56.7035 28.8064 276° West 452 520 36,000  Level FlightAware ADS-B (EVDA / DGP)
08:39PM 56.7161 28.5836 276° West 453 521 36,000  Level FlightAware ADS-B (EVDA / DGP)
08:40PM 56.7284 28.3576 276° West 454 522 36,000  Level FlightAware ADS-B (EVDA / DGP)
08:41PM 56.7406 28.1255 275° West 454 522 36,000  Level FlightAware ADS-B (EVDA / DGP)
08:42PM 56.7520 27.8981 275° West 455 524 36,000  Level FlightAware ADS-B (EVDA / DGP)
08:43PM 56.7638 27.6703 275° West 455 524 36,000  Level FlightAware ADS-B (EVDA / DGP)
08:44PM 56.7656 27.4417 270° West 456 525 36,000  Level FlightAware ADS-B (EVDA / DGP)
08:45PM 56.7665 27.2131 271° West 456 525 36,000  Level FlightAware ADS-B (EVDA / DGP)
08:46PM 56.7674 26.9907 270° West 457 526 36,000  Level FlightAware ADS-B (EVDA / DGP)
08:47PM 56.7681 26.7547 270° West 458 527 36,000  Level FlightAware ADS-B (EVDA / DGP)
08:48PM 56.7682 26.5237 270° West 459 528 36,000  Level FlightAware ADS-B (EVDA / DGP)
08:49PM 56.7679 26.2875 270° West 459 528 36,000  Level FlightAware ADS-B (EVDA / DGP)
08:50PM 56.7673 26.0618 270° West 460 529 36,000  Level FlightAware ADS-B (EVDA / DGP)
08:51PM 56.7662 25.8239 269° West 460 529 36,000  Level FlightAware ADS-B (EVDA / DGP)
08:52PM 56.7646 25.5942 269° West 459 528 36,000  Level FlightAware ADS-B (EVDA / DGP)
08:53PM 56.7626 25.3601 269° West 461 531 36,000  Level FlightAware ADS-B (EVDA / DGP)
08:54PM 56.7602 25.1339 269° West 464 534 36,000  Level FlightAware ADS-B (EVDA / DGP)
08:55PM 56.7574 24.8982 269° West 463 533 36,000  Level FlightAware ADS-B (EVDA / DGP)
08:56PM 56.7540 24.6631 268° West 462 532 36,000  Level FlightAware ADS-B (EVDA / DGP)
08:57PM 56.7504 24.4284 268° West 461 531 36,000  Level FlightAware ADS-B (EVDA / DGP)
08:58PM 56.7462 24.1982 268° West 461 531 36,000  Level FlightAware ADS-B (EVDA / DGP)
08:59PM 56.7416 23.9637 268° West 464 534 36,000  Level FlightAware ADS-B (EVDA / DGP)
08:59PM 56.7385 23.8150 268° West 465 535 36,000  Level FlightAware ADS-B (EPSY / SZY)
09:00PM 56.7359 23.6990 268° West 466 536 36,000  Level FlightAware ADS-B (EPSY / SZY)
09:00PM 56.7331 23.5803 268° West 468 539 36,000  Level FlightAware ADS-B (EPSY / SZY)
09:01PM 56.7292 23.4216 267° West 471 542 36,000  Level FlightAware ADS-B (EPSY / SZY)
09:02PM 56.7284 23.2650 275° West 473 544 36,000  Level FlightAware ADS-B (EPSY / SZY)
09:02PM 56.7351 23.1056 275° West 480 552 36,000  Level FlightAware ADS-B (EPSY / SZY)
09:03PM 56.7409 22.9843 275° West 479 551 36,000  Level FlightAware ADS-B (EPSY / SZY)
09:03PM 56.7465 22.8630 275° West 478 550 36,000  Level FlightAware ADS-B (EPSY / SZY)
09:04PM 56.7536 22.7037 275° West 478 550 36,000  Level FlightAware ADS-B (EPSY / SZY)
09:05PM 56.7604 22.5428 274° West 476 548 36,000  Level FlightAware ADS-B (EVDA / DGP)
09:06PM 56.7703 22.3019 274° West 475 547 36,000  Level FlightAware ADS-B (EVDA / DGP)
09:07PM 56.7796 22.0630 274° West 469 540 36,000  Level FlightAware ADS-B (EVDA / DGP)
09:08PM 56.7882 21.8288 274° West 466 536 36,000  Level FlightAware ADS-B (EVDA / DGP)
09:09PM 56.7964 21.5941 274° West 465 535 36,000  Level FlightAware ADS-B (EVDA / DGP)
09:10PM 56.8043 21.3572 273° West 470 541 36,000  Level FlightAware ADS-B (EVDA / DGP)
09:11PM 56.8116 21.1241 273° West 473 544 36,000  Level FlightAware ADS-B (EVDA / DGP)
09:12PM 56.8215 20.7794 273° West 478 550 36,000  Level FlightAware ADS-B (EVDA / DGP)
09:13PM 56.8251 20.6456 273° West 479 551 36,000  Level FlightAware ADS-B (EVDA / DGP)
09:14PM 56.8311 20.4105 273° West 480 552 36,000  Level FlightAware ADS-B (EVDA / DGP)
09:15PM 56.8373 20.1489 272° West 486 559 36,000  Level FlightAware ADS-B (EVDA / DGP)
09:23PM 56.8672 17.9876 271° West 502 578 36,000  Level FlightAware ADS-B (ESMN)
09:24PM 56.8678 17.8397 271° West 502 578 36,000  Level FlightAware ADS-B (ESMN)
09:24PM 56.8683 17.6927 270° West 502 578 36,000  Level FlightAware ADS-B (ESMN)
09:25PM 56.8686 17.5351 270° West 502 578 36,000  Level FlightAware ADS-B (ESMN)
09:26PM 56.8687 17.4086 270° West 502 578 36,000  Level FlightAware ADS-B (ESMN)
09:26PM 56.8688 17.2731 270° West 499 574 36,000  Level FlightAware ADS-B (ESMN)
09:27PM 56.8686 17.1437 270° West 496 571 36,000  Level FlightAware ADS-B (ESMN)
09:27PM 56.8683 17.0165 270° West 493 567 36,000  Level FlightAware ADS-B (ESMN)
09:28PM 56.8679 16.8737 270° West 491 565 36,000  Level FlightAware ADS-B (ESMN)
09:28PM 56.8673 16.7535 270° West 493 567 36,000  Level FlightAware ADS-B (ESMN)
09:29PM 56.8666 16.6064 269° West 494 568 36,000  Level FlightAware ADS-B (ESMN)
09:29PM 56.8659 16.4961 269° West 495 570 36,000  Level FlightAware ADS-B (ESMN)
09:30PM 56.8647 16.3343 269° West 496 571 36,000  Level FlightAware ADS-B (ESMN)
09:30PM 56.8637 16.2132 269° West 495 570 36,000  Level FlightAware ADS-B (ESMN)
09:31PM 56.8624 16.0879 269° West 495 570 36,000  Level FlightAware ADS-B (ESMN)
09:31PM 56.8611 15.9611 269° West 493 567 36,000  Level FlightAware ADS-B (ESMN)
09:32PM 56.8597 15.8389 269° West 492 566 36,000  Level FlightAware ADS-B (ESMN)
09:32PM 56.8580 15.7054 269° West 491 565 36,000  Level FlightAware ADS-B (ESMN)
09:33PM 56.8563 15.5785 269° West 490 564 36,000  Level FlightAware ADS-B (ESMN)
09:33PM 56.8544 15.4508 268° West 491 565 36,000  Level FlightAware ADS-B (ESMN)
09:34PM 56.8526 15.3280 268° West 493 567 36,000  Level FlightAware ADS-B (ESMN)
09:34PM 56.8504 15.2035 268° West 491 565 36,000  Level FlightAware ADS-B (ESMN)
09:35PM 56.8482 15.0816 268° West 490 564 36,000  Level FlightAware ADS-B (ESMN)
09:35PM 56.8458 14.9508 268° West 495 570 36,000  Level FlightAware ADS-B (ESMN)
09:36PM 56.8434 14.8263 268° West 496 571 36,000  Level FlightAware ADS-B (ESMN)
09:36PM 56.8407 14.6970 268° West 496 571 36,000  Level FlightAware ADS-B (ESMN)
09:37PM 56.8377 14.5566 268° West 494 568 36,000  Level FlightAware ADS-B (ESMN)
09:37PM 56.8347 14.4293 268° West 492 566 36,000  Level FlightAware ADS-B (ESMN)
09:38PM 56.8317 14.3021 267° West 493 567 36,000  Level FlightAware ADS-B (ESMN)
09:38PM 56.8287 14.1791 267° West 494 568 36,000  Level FlightAware ADS-B (ESMN)
09:39PM 56.8254 14.0551 267° West 496 571 36,000  Level FlightAware ADS-B (ESMN)
09:40PM 56.8216 13.9138 267° West 496 571 36,000  Level FlightAware ADS-B (ESMN)
09:40PM 56.8180 13.7849 267° West 496 571 36,000  Level FlightAware ADS-B (ESMN)
09:41PM 56.8144 13.6597 267° West 496 571 36,000  Level FlightAware ADS-B (ESMN)
09:41PM 56.8105 13.5321 267° West 495 570 36,000  Level FlightAware ADS-B (ESMN)
09:42PM 56.8067 13.4088 267° West 495 570 36,000  Level FlightAware ADS-B (ESMN)
09:42PM 56.8021 13.2645 267° West 494 568 36,000  Level FlightAware ADS-B (ESMN)
09:43PM 56.7980 13.1408 266° West 494 568 36,000  Level FlightAware ADS-B (ESMN)
09:43PM 56.7930 12.9976 266° West 494 568 36,000  Level FlightAware ADS-B (ESMN)
09:44PM 56.7886 12.8710 266° West 495 570 36,000  Level FlightAware ADS-B (ESMN)
09:44PM 56.7834 12.7284 266° West 496 571 36,000  Level FlightAware ADS-B (ESMN)
09:45PM 56.7786 12.6024 266° West 496 571 36,000  Level FlightAware ADS-B (ESMN)
09:45PM 56.7731 12.4579 266° West 496 571 36,000  Level FlightAware ADS-B (ESMN)
09:46PM 56.7681 12.3337 266° West 496 571 36,000  Level FlightAware ADS-B (ESMN)
09:46PM 56.7630 12.2080 266° West 495 570 36,000  Level FlightAware ADS-B (ESMN)
09:47PM 56.7571 12.0680 266° West 496 571 36,000  Level FlightAware ADS-B (ESMN)
09:48PM 56.7462 11.8160 265° West 496 571 36,000  Level FlightAware ADS-B (ESMN)
09:49PM 56.7324 11.5153 265° West 496 571 36,000  Level FlightAware ADS-B (ESMN)
09:52PM 56.6987 10.8373 265° West 500 575 36,000  Level FlightAware ADS-B (ESMN)
09:53PM 56.6874 10.6253 264° West 500 575 36,000  Level FlightAware ADS-B (ESMN)
09:53PM 56.6783 10.4598 264° West 501 577 36,000  Level FlightAware ADS-B (ESMN)
09:54PM 56.6711 10.3318 264° West 500 575 36,000  Level FlightAware ADS-B (ESMN)
09:54PM 56.6646 10.2173 264° West 499 574 36,000  Level FlightAware ADS-B (ESMN)
09:55PM 56.6577 10.0915 267° West 495 570 36,000  Level FlightAware ADS-B (ESMN)
09:55PM 56.6570 9.9405 270° West 491 565 36,000  Level FlightAware ADS-B (ESMN)
09:56PM 56.6564 9.7954 269° West 492 566 36,000  Level FlightAware ADS-B (ESMN)
10:16PM 56.4908 4.8336 267° West 473 544 36,000  Level FlightAware UK
10:17PM 56.4851 4.7154 265° West 521 600 36,000  Level FlightAware UK
10:17PM 56.4776 4.5727 265° West 434 499 36,000  Level FlightAware UK
10:18PM 56.4686 4.4104 264° West 472 543 36,000  Level FlightAware UK
10:19PM 56.4617 4.2927 264° West 472 543 36,000  Level FlightAware UK
10:19PM 56.4548 4.1735 264° West 470 541 36,000  Level FlightAware UK
10:20PM 56.4464 4.0344 264° West 468 539 36,000  Level FlightAware UK
10:20PM 56.4380 3.8961 264° West 468 539 36,000  Level FlightAware UK
10:21PM 56.4310 3.7794 264° West 466 536 36,000  Level FlightAware UK
10:21PM 56.4219 3.6425 263° West 466 536 36,000  Level FlightAware UK
10:22PM 56.4130 3.5037 263° West 466 536 36,000  Level FlightAware UK
10:23PM 56.4053 3.3866 263° West 466 536 36,000  Level FlightAware UK
10:23PM 56.3976 3.2701 263° West 466 536 36,000  Level FlightAware UK
10:24PM 56.3900 3.1542 263° West 466 536 36,000  Level FlightAware UK
10:24PM 56.3806 3.0169 263° West 466 536 36,000  Level FlightAware UK
10:25PM 56.3725 2.9006 263° West 464 534 36,000  Level FlightAware UK
10:25PM 56.3629 2.7647 263° West 464 534 36,000  Level FlightAware UK
10:26PM 56.3533 2.6287 263° West 462 532 36,000  Level FlightAware UK
10:26PM 56.3452 2.5144 263° West 462 532 36,000  Level FlightAware UK
10:27PM 56.3367 2.4002 262° West 462 532 36,000  Level FlightAware UK
10:27PM 56.3304 2.3136 263° West 461 531 36,000  Level FlightAware ADS-B (EGPD / ABZ)
10:28PM 56.3179 2.1495 263° West 460 529 36,000  Level FlightAware UK
10:28PM 56.3105 2.0504 262° West 461 531 36,000  Level FlightAware ADS-B (EGPD / ABZ)
10:29PM 56.2985 1.8968 262° West 458 527 36,000  Level FlightAware UK
10:29PM 56.2933 1.8274 262° West 459 528 36,000  Level FlightAware ADS-B (EGPD / ABZ)
10:30PM 56.2771 1.6277 262° West 458 527 36,000  Level FlightAware UK
10:30PM 56.2753 1.6004 262° West 458 527 36,000  Level FlightAware ADS-B (EGPD / ABZ)
10:31PM 56.2569 1.3737 262° West 455 524 36,000  Level FlightAware ADS-B (EGPD / ABZ)
10:32PM 56.2464 1.2482 262° West 454 522 36,000  Level FlightAware UK
10:32PM 56.2429 1.2054 262° West 453 521 36,000  Level FlightAware ADS-B (EGNT / NCL)
10:32PM 56.2395 1.1643 262° West 453 521 36,000  Level FlightAware ADS-B (EGNT / NCL)
10:33PM 56.2266 1.0119 261° West 450 518 36,000  Level FlightAware ADS-B (EGNT / NCL)
10:34PM 56.2140 0.8659 261° West 450 518 36,000  Level FlightAware ADS-B (EGNT / NCL)
10:34PM 56.2011 0.7184 261° West 448 516 36,000  Level FlightAware UK
10:34PM 56.2005 0.7111 261° West 449 517 36,000  Level FlightAware ADS-B (EGPD / ABZ)
10:35PM 56.1894 0.5876 261° West 446 513 36,000  Level FlightAware UK
10:35PM 56.1883 0.5735 261° West 448 516 36,000  Level FlightAware ADS-B (EGNT / NCL)
10:36PM 56.1694 0.3639 261° West 446 513 36,000  Level FlightAware ADS-B (EGNT / NCL)
10:36PM 56.1680 0.3494 261° West 446 513 36,000  Level FlightAware UK
10:36PM 56.1623 0.2855 261° West 446 513 36,000  Level FlightAware ADS-B (EGNT / NCL)
10:37PM 56.1518 0.1708 261° West 446 513 36,000  Level FlightAware ADS-B (EGPF / GLA)
10:37PM 56.1486 0.1359 262° West 444 511 36,000  Level FlightAware ADS-B (EGPD / ABZ)
10:38PM 56.1381 0.0244 260° West 445 512 36,000  Level FlightAware ADS-B (EGPF / GLA)
10:38PM 56.1254 -0.1097 260° West 444 511 36,000  Level FlightAware UK
10:38PM 56.1239 -0.1264 260° West 445 512 36,000  Level FlightAware ADS-B (EGNT / NCL)
10:39PM 56.1131 -0.2379 260° West 444 511 36,000  Level FlightAware UK
10:39PM 56.1134 -0.2370 260° West 444 511 36,000  Level FlightAware ADS-B (EGNT / NCL)
10:39PM 56.1048 -0.3256 260° West 444 511 36,000  Level FlightAware ADS-B (EGPH / EDI)
10:39PM 56.0991 -0.3842 260° West 444 511 36,000  Level FlightAware ADS-B (EGAA / BFS)
10:40PM 56.0879 -0.4984 260° West 442 509 36,000  Level FlightAware UK
10:40PM 56.0881 -0.4970 260° West 443 510 36,000  Level FlightAware ADS-B (EGPF / GLA)
10:40PM 56.0783 -0.5958 260° West 442 509 36,000  Level FlightAware ADS-B (EGNT / NCL)
10:41PM 56.0679 -0.7014 260° West 441 507 36,000  Level FlightAware ADS-B (EGNT / NCL)
10:41PM 56.0568 -0.8110 260° West 440 506 36,000  Level FlightAware ADS-B (EGPF / GLA)
10:42PM 56.0504 -0.8749 260° West 440 506 36,000  Level FlightAware ADS-B (EGGP / LPL)
10:43PM 56.0316 -1.0584 260° West 440 506 36,000  Level FlightAware ADS-B (EGPH / EDI)
10:43PM 56.0207 -1.1635 260° West 441 507 36,000  Level FlightAware ADS-B (EGPH / EDI)
10:44PM 56.0088 -1.2786 259° West 442 509 36,000  Level FlightAware ADS-B (EGNT / NCL)
10:44PM 55.9975 -1.3851 259° West 441 507 36,000  Level FlightAware ADS-B (EGNT / NCL)
10:45PM 55.9841 -1.5111 259° West 440 506 36,000  Level FlightAware ADS-B (EGPF / GLA)
10:45PM 55.9710 -1.6329 259° West 438 504 36,000  Level FlightAware UK
10:45PM 55.9702 -1.6406 259° West 439 505 36,000  Level FlightAware ADS-B (EGNT / NCL)
10:46PM 55.9580 -1.7531 259° West 438 504 36,000  Level FlightAware ADS-B (EGAA / BFS)
10:46PM 55.9463 -1.8600 259° West 437 503 36,000  Level FlightAware ADS-B (EGPG)
10:47PM 55.9339 -1.9718 259° West 436 502 36,000  Level FlightAware UK
10:47PM 55.9315 -1.9938 259° West 437 503 36,000  Level FlightAware ADS-B (EGNT / NCL)
10:47PM 55.9199 -2.0983 259° West 436 502 36,000  Level FlightAware ADS-B (EGPH / EDI)
10:48PM 55.9073 -2.2099 259° West 437 503 36,000  Level FlightAware ADS-B (EGPH / EDI)
10:48PM 55.9030 -2.2473 259° West 434 499 36,000  Level FlightAware ADS-B (EGNR / CEG)
10:48PM 55.8957 -2.3077 257° West 437 503 36,000  Level FlightAware ADS-B (EGNT / NCL)
10:49PM 55.8823 -2.4127 257° West 436 502 36,000  Level FlightAware ADS-B (EGPH / EDI)
10:49PM 55.8687 -2.5198 257° West 436 502 36,000  Level FlightAware ADS-B (EGNT / NCL)
10:50PM 55.8553 -2.6256 257° West 436 502 36,000  Level FlightAware ADS-B (EGPH / EDI)
10:50PM 55.8431 -2.7214 257° West 436 502 36,000  Level FlightAware ADS-B (EGNT / NCL)
10:51PM 55.8308 -2.8180 257° West 436 502 36,000  Level FlightAware ADS-B (EGNT / NCL)
10:51PM 55.8158 -2.9342 257° West 436 502 36,000  Level FlightAware ADS-B (EGPH / EDI)
10:52PM 55.8017 -3.0425 257° West 436 502 36,000  Level FlightAware ADS-B (EGPH / EDI)
10:52PM 55.7869 -3.1558 257° West 434 499 36,000  Level FlightAware ADS-B (EGPG)
10:53PM 55.7735 -3.2568 257° West 434 499 36,000  Level FlightAware ADS-B (EGPG)
10:54PM 55.7552 -3.3943 257° West 432 497 36,000  Level FlightAware ADS-B (EGPG)
10:54PM 55.7410 -3.5003 257° West 431 496 36,000  Level FlightAware ADS-B (EGPG)
10:55PM 55.7271 -3.6031 257° West 430 495 36,000  Level FlightAware ADS-B (EGPG)
10:55PM 55.7131 -3.7056 256° West 429 494 36,000  Level FlightAware ADS-B (EGPG)
10:56PM 55.6962 -3.8291 256° West 429 494 36,000  Level FlightAware ADS-B (EGAA / BFS)
10:56PM 55.6806 -3.9416 256° West 429 494 36,000  Level FlightAware ADS-B (EGPG)
10:57PM 55.6664 -4.0439 256° West 430 495 36,000  Level FlightAware ADS-B (EGPG)
10:57PM 55.6519 -4.1470 256° West 430 495 36,000  Level FlightAware ADS-B (EGPG)
10:58PM 55.6377 -4.2478 256° West 430 495 36,000  Level FlightAware ADS-B (EGPG)
10:58PM 55.6232 -4.3501 256° West 430 495 36,000  Level FlightAware ADS-B (EGPG)
10:59PM 55.6063 -4.4683 256° West 429 494 36,000  Level FlightAware ADS-B (EGPH / EDI)
10:59PM 55.5890 -4.5886 256° West 429 494 36,000  Level FlightAware ADS-B (EGPG)
11:00PM 55.5860 -4.6088 257° West 427 491 36,000  Level FlightAware ADS-B (EGPF / GLA)
11:00PM 55.5759 -4.6788 257° West 428 493 36,000  Level FlightAware ADS-B (EGPF / GLA)
11:00PM 55.5613 -4.7786 256° West 429 494 36,000  Level FlightAware ADS-B (EGPF / GLA)
11:01PM 55.5567 -4.8102 257° West 427 491 36,000  Level FlightAware ADS-B (EGPF / GLA)
11:01PM 55.5404 -4.9213 255° West 429 494 36,000  Level FlightAware ADS-B (EGPF / GLA)
11:02PM 55.5248 -5.0264 255° West 429 494 36,000  Level FlightAware ADS-B (EGPG)
11:02PM 55.5095 -5.1292 255° West 428 493 36,000  Level FlightAware ADS-B (EGPG)
11:03PM 55.4944 -5.2297 255° West 427 491 36,000  Level FlightAware ADS-B (EGPG)
11:03PM 55.4793 -5.3297 255° West 427 491 36,000  Level FlightAware ADS-B (EGPG)
11:04PM 55.4606 -5.4526 255° West 426 490 36,000  Level FlightAware ADS-B (EGPG)
11:04PM 55.4452 -5.5528 254° West 425 489 36,000  Level FlightAware ADS-B (EGPG)
11:05PM 55.4328 -5.6173 250° West 419 482 36,000  Level FlightAware ADS-B (EGPF / GLA)
11:05PM 55.4057 -5.7191 241° Southwest 418 481 36,000  Level FlightAware ADS-B (EGPG)
11:05PM 55.3952 -5.7510 240° Southwest 418 481 36,000  Level FlightAware ADS-B (EGPG)
11:06PM 55.3659 -5.8377 240° Southwest 417 480 36,000  Level FlightAware ADS-B (EGPH / EDI)
11:06PM 55.3372 -5.9249 240° Southwest 416 479 36,000  Level FlightAware ADS-B (EGPH / EDI)
11:07PM 55.3059 -6.0182 239° Southwest 416 479 36,000  Level FlightAware ADS-B (EGPH / EDI)
11:07PM 55.2762 -6.1056 239° Southwest 416 479 36,000  Level FlightAware ADS-B (EGPH / EDI)
11:08PM 55.2476 -6.1887 239° Southwest 415 478 36,000  Level FlightAware ADS-B (EGPH / EDI)
11:08PM 55.2172 -6.2774 239° Southwest 415 478 36,000  Level FlightAware ADS-B (EGPH / EDI)
11:09PM 55.1876 -6.3632 239° Southwest 416 479 36,000  Level FlightAware ADS-B (EGPH / EDI)
11:09PM 55.1570 -6.4520 239° Southwest 415 478 36,000  Level FlightAware ADS-B (EGAA / BFS)
11:10PM 55.1436 -6.4904 240° Southwest 411 473 36,000  Level FlightAware ADS-B (EGPF / GLA)
11:10PM 55.1131 -6.5782 239° Southwest 416 479 36,000  Level FlightAware ADS-B (EGPH / EDI)
11:11PM 55.0825 -6.6659 239° Southwest 415 478 36,000  Level FlightAware ADS-B (EGPH / EDI)
11:11PM 55.0516 -6.7538 239° Southwest 415 478 36,000  Level FlightAware ADS-B (EGPH / EDI)
11:12PM 55.0233 -6.8345 238° Southwest 416 479 36,000  Level FlightAware ADS-B (EGPH / EDI)
11:12PM 54.9836 -6.9511 242° Southwest 418 481 36,000  Level FlightAware ADS-B (EGPF / GLA)
11:12PM 54.9782 -6.9687 239° Southwest 416 479 36,000  Level FlightAware ADS-B (EGPH / EDI)
11:13PM 54.9505 -7.0612 239° Southwest 418 481 36,000  Level FlightAware UK
11:13PM 54.9483 -7.0674 242° Southwest 418 481 36,000  Level FlightAware ADS-B (EGPF / GLA)
11:14PM 54.9110 -7.1871 242° Southwest 412 474 36,000  Level FlightAware ADS-B (EGPF / GLA)
11:14PM 54.9027 -7.2133 241° Southwest 416 479 36,000  Level FlightAware ADS-B (EGPF / GLA)
11:14PM 54.8824 -7.2772 241° Southwest 415 478 36,000  Level FlightAware ADS-B (EGPH / EDI)
11:15PM 54.8443 -7.3969 241° Southwest 415 478 36,000  Level FlightAware ADS-B (EGAA / BFS)
11:15PM 54.8126 -7.4959 241° Southwest 415 478 36,000  Level FlightAware ADS-B (EGPH / EDI)
11:16PM 54.8054 -7.5182 241° Southwest 415 478 36,000  Level FlightAware ADS-B (EGPH / EDI)
11:16PM 54.7730 -7.6194 241° Southwest 414 476 36,000  Level FlightAware UK
11:16PM 54.7632 -7.6495 242° Southwest 411 473 36,000  Level FlightAware ADS-B (EGPF / GLA)
11:17PM 54.7330 -7.7430 241° Southwest 415 478 36,000  Level FlightAware ADS-B (EGAA / BFS)
11:17PM 54.6976 -7.8519 241° Southwest 414 476 36,000  Level FlightAware ADS-B (EGAA / BFS)
11:18PM 54.6895 -7.8768 241° Southwest 414 476 36,000  Level FlightAware ADS-B (EGAA / BFS)
11:18PM 54.6576 -7.9745 241° Southwest 412 474 36,000  Level FlightAware ADS-B (EGAA / BFS)
11:19PM 54.6217 -8.0848 241° Southwest 412 474 36,000  Level FlightAware UK
11:19PM 54.6208 -8.0869 241° Southwest 412 474 36,000  Level FlightAware ADS-B (EGAA / BFS)
11:19PM 54.5880 -8.1868 241° Southwest 412 474 36,000  Level FlightAware UK
11:19PM 54.5835 -8.2000 240° Southwest 413 475 36,000  Level FlightAware ADS-B (EGAA / BFS)
11:20PM 54.5453 -8.3155 240° Southwest 413 475 36,000  Level FlightAware ADS-B (EGAA / BFS)
11:21PM 54.5073 -8.4297 240° Southwest 414 476 36,000  Level FlightAware ADS-B (EGAA / BFS)
11:21PM 54.4687 -8.5455 240° Southwest 414 476 36,000  Level FlightAware UK
11:21PM 54.4692 -8.5438 240° Southwest 414 476 36,000  Level FlightAware ADS-B (EGAA / BFS)
11:22PM 54.4346 -8.6473 240° Southwest 414 476 36,000  Level FlightAware UK
11:22PM 54.4324 -8.6532 240° Southwest 416 479 36,000  Level FlightAware ADS-B (EGAA / BFS)
11:23PM 54.4022 -8.7429 240° Southwest 416 479 36,000  Level FlightAware ADS-B (EICK / ORK)
11:23PM 54.3739 -8.8266 240° Southwest 416 479 36,000  Level FlightAware ADS-B (EGAA / BFS)
11:24PM 54.3422 -8.9203 240° Southwest 416 479 36,000  Level FlightAware UK
11:24PM 54.3455 -8.9103 240° Southwest 417 480 36,000  Level FlightAware ADS-B (EICK / ORK)
11:24PM 54.3162 -8.9964 240° Southwest 417 480 36,000  Level FlightAware ADS-B (EICK / ORK)
11:25PM 54.2800 -9.1023 240° Southwest 416 479 36,000  Level FlightAware ADS-B (EGAA / BFS)
11:25PM 54.2480 -9.1957 240° Southwest 415 478 36,000  Level FlightAware ADS-B (EGAA / BFS)
11:26PM 54.2142 -9.2936 239° Southwest 415 478 36,000  Level FlightAware ADS-B (EICK / ORK)
11:27PM 54.1759 -9.4044 239° Southwest 414 476 36,000  Level FlightAware ADS-B (EGAA / BFS)
11:27PM 54.1439 -9.4963 239° Southwest 414 476 36,000  Level FlightAware ADS-B (EICK / ORK)
11:28PM 54.1011 -9.6188 239° Southwest 412 474 36,000  Level FlightAware ADS-B (EICK / ORK)
11:29PM 54.0529 -9.7563 239° Southwest 413 475 36,000  Level FlightAware ADS-B (EGAA / BFS)
11:30PM 53.9742 -9.9790 239° Southwest 415 478 36,000  Level FlightAware ADS-B (EICK / ORK)
11:31PM 53.9502 -10.0463 240° Southwest 412 474 36,000  Level FlightAware ADS-B (EICK / ORK)
11:31PM 53.8923 -10.2087 239° Southwest 416 479 36,000  Level FlightAware ADS-B (EICK / ORK)
11:32PM 53.8547 -10.3133 239° Southwest 416 479 36,000  Level FlightAware ADS-B (EICK / ORK)
11:33PM 53.8234 -10.4002 239° Southwest 416 479 36,000  Level FlightAware ADS-B (EICK / ORK)
11:33PM 53.7934 -10.4828 238° Southwest 417 480 36,000  Level FlightAware ADS-B (EICK / ORK)
11:34PM 53.7588 -10.5783 238° Southwest 417 480 36,000  Level FlightAware ADS-B (EICK / ORK)
11:34PM 53.7268 -10.6662 238° Southwest 417 480 36,000  Level FlightAware ADS-B (EICK / ORK)
11:35PM 53.6964 -10.7494 238° Southwest 417 480 36,000  Level FlightAware ADS-B (EICK / ORK)
11:35PM 53.6508 -10.8736 238° Southwest 417 480 36,000  Level FlightAware ADS-B (EICK / ORK)
11:36PM 53.6201 -10.9569 238° Southwest 417 480 36,000  Level FlightAware ADS-B (EICK / ORK)
11:37PM 53.5762 -11.0753 238° Southwest 417 480 36,000  Level FlightAware ADS-B (EICK / ORK)
11:37PM 53.5357 -11.1844 238° Southwest 419 482 36,000  Level FlightAware ADS-B (EICK / ORK)
11:38PM 53.5087 -11.2565 238° Southwest 419 482 36,000  Level FlightAware ADS-B (EICK / ORK)
11:38PM 53.4732 -11.3514 238° Southwest 419 482 36,000  Level FlightAware ADS-B (EICK / ORK)
11:39PM 53.4326 -11.4595 238° Southwest 418 481 36,000  Level FlightAware ADS-B (EICK / ORK)
11:39PM 53.4019 -11.5407 238° Southwest 420 483 36,000  Level FlightAware ADS-B (EICK / ORK)
11:40PM 53.3608 -11.6494 238° Southwest 421 484 36,000  Level FlightAware ADS-B (EICK / ORK)
11:41PM 53.3290 -11.7328 237° Southwest 421 484 36,000  Level FlightAware ADS-B (EICK / ORK)
11:41PM 53.2975 -11.8152 237° Southwest 421 484 36,000  Level FlightAware ADS-B (EICK / ORK)
11:42PM 53.2663 -11.8969 237° Southwest 421 484 36,000  Level FlightAware ADS-B (EICK / ORK)
11:42PM 53.2240 -12.0069 237° Southwest 421 484 36,000  Level FlightAware ADS-B (EICK / ORK)
11:43PM 53.1922 -12.0895 237° Southwest 422 486 36,000  Level FlightAware ADS-B (EICK / ORK)
11:43PM 53.1507 -12.1965 237° Southwest 423 487 36,000  Level FlightAware ADS-B (EICK / ORK)
11:44PM 53.1118 -12.2966 237° Southwest 424 488 36,000 -60 Level FlightAware ADS-B (EICK / ORK)
12:27AM 51.0000 -20.0000 249° West 443 510 34,000 -60 Descending ETMS Enhanced Traffic Management System
12:28AM 51.3548 -20.3310 247° West  Level Estimated
12:29AM 51.3081 -20.5081 247° West  Level Estimated
12:30AM 51.2612 -20.6848 247° West  Level Estimated
12:31AM 51.2140 -20.8612 247° West  Level Estimated
12:32AM 51.1665 -21.0371 247° West  Level Estimated
12:33AM 50.6850 -21.2715 248° West 443 510 34,000  Level FlightAware Transoceanic
12:34AM 50.6389 -21.4517 248° West 443 510 34,000  Level FlightAware Transoceanic
12:35AM 50.5925 -21.6316 248° West 443 510 34,000  Level FlightAware Transoceanic
12:36AM 50.5458 -21.8111 248° West 443 510 34,000  Level FlightAware Transoceanic
12:37AM 50.4988 -21.9903 248° West 443 510 34,000  Level FlightAware Transoceanic
12:38AM 50.4516 -22.1691 247° West 443 510 34,000  Level FlightAware Transoceanic
12:39AM 50.4041 -22.3476 247° West 443 510 34,000  Level FlightAware Transoceanic
12:40AM 50.3563 -22.5257 247° West 443 510 34,000  Level FlightAware Transoceanic
12:41AM 50.3083 -22.7034 247° West 443 510 34,000  Level FlightAware Transoceanic
12:42AM 50.2600 -22.8808 247° West 443 510 34,000  Level FlightAware Transoceanic
12:43AM 50.2114 -23.0578 247° West 443 510 34,000  Level FlightAware Transoceanic
12:44AM 50.1625 -23.2345 247° West 443 510 34,000  Level FlightAware Transoceanic
12:45AM 50.1134 -23.4108 246° West 443 510 34,000  Level FlightAware Transoceanic
12:46AM 50.0640 -23.5867 246° West 443 510 34,000  Level FlightAware Transoceanic
12:47AM 50.0144 -23.7623 246° West 443 510 34,000  Level FlightAware Transoceanic
12:48AM 49.9645 -23.9375 246° West 443 510 34,000  Level FlightAware Transoceanic
12:49AM 49.9143 -24.1123 246° West 443 510 34,000  Level FlightAware Transoceanic
12:50AM 49.8638 -24.2868 246° West 443 510 34,000  Level FlightAware Transoceanic
12:51AM 49.8131 -24.4609 246° West 443 510 34,000  Level FlightAware Transoceanic
12:52AM 49.7622 -24.6346 246° West 443 510 34,000  Level FlightAware Transoceanic
12:53AM 49.7110 -24.8080 245° Southwest 443 510 34,000  Level FlightAware Transoceanic
12:54AM 49.6595 -24.9810 245° Southwest 443 510 34,000  Level FlightAware Transoceanic
12:55AM 49.6077 -25.1537 245° Southwest 443 510 34,000  Level FlightAware Transoceanic
12:56AM 49.5558 -25.3260 245° Southwest 443 510 34,000  Level FlightAware Transoceanic
12:57AM 49.5035 -25.4979 245° Southwest 443 510 34,000  Level FlightAware Transoceanic
12:58AM 49.4510 -25.6694 245° Southwest 443 510 34,000  Level FlightAware Transoceanic
12:59AM 49.3982 -25.8406 245° Southwest 443 510 34,000  Level FlightAware Transoceanic
01:00AM 49.3452 -26.0114 244° Southwest 443 510 34,000  Level FlightAware Transoceanic
01:01AM 49.2920 -26.1819 244° Southwest 443 510 34,000  Level FlightAware Transoceanic
01:02AM 49.2385 -26.3519 244° Southwest 443 510 34,000  Level FlightAware Transoceanic
01:03AM 49.1847 -26.5216 244° Southwest 443 510 34,000  Level FlightAware Transoceanic
01:04AM 49.1307 -26.6910 244° Southwest 443 510 34,000  Level FlightAware Transoceanic
01:05AM 49.0764 -26.8599 244° Southwest 443 510 34,000  Level FlightAware Transoceanic
01:06AM 49.0219 -27.0285 244° Southwest 443 510 34,000  Level FlightAware Transoceanic
01:07AM 48.9672 -27.1968 244° Southwest 443 510 34,000  Level FlightAware Transoceanic
01:08AM 48.9122 -27.3646 243° Southwest 443 510 34,000  Level FlightAware Transoceanic
01:09AM 48.8570 -27.5321 243° Southwest 443 510 34,000  Level FlightAware Transoceanic
01:10AM 48.8015 -27.6992 243° Southwest 443 510 34,000  Level FlightAware Transoceanic
01:11AM 48.7458 -27.8660 243° Southwest 443 510 34,000  Level FlightAware Transoceanic
01:12AM 48.6898 -28.0324 243° Southwest 443 510 34,000  Level FlightAware Transoceanic
01:13AM 48.6336 -28.1984 243° Southwest 443 510 34,000  Level FlightAware Transoceanic
01:14AM 48.5772 -28.3640 243° Southwest 443 510 34,000  Level FlightAware Transoceanic
01:15AM 48.5205 -28.5292 243° Southwest 443 510 34,000  Level FlightAware Transoceanic
01:16AM 48.4636 -28.6942 242° Southwest 443 510 34,000  Level FlightAware Transoceanic
01:17AM 48.4065 -28.8587 242° Southwest 443 510 34,000  Level FlightAware Transoceanic
01:18AM 48.3491 -29.0228 242° Southwest 443 510 34,000  Level FlightAware Transoceanic
01:19AM 48.2915 -29.1866 242° Southwest 443 510 34,000  Level FlightAware Transoceanic
01:20AM 48.2337 -29.3500 242° Southwest 443 510 34,000  Level FlightAware Transoceanic
01:21AM 48.1756 -29.5131 242° Southwest 443 510 34,000  Level FlightAware Transoceanic
01:22AM 48.1173 -29.6758 242° Southwest 443 510 34,000  Level FlightAware Transoceanic
01:23AM 48.0588 -29.8381 242° Southwest 443 510 34,000  Level FlightAware Transoceanic
01:24AM 47.9989 -29.9937 240° Southwest  Level Estimated
01:25AM 47.9388 -30.1490 240° Southwest  Level Estimated
01:26AM 47.8785 -30.3039 240° Southwest  Level Estimated
01:27AM 47.8180 -30.4585 240° Southwest  Level Estimated
01:28AM 47.7573 -30.6127 240° Southwest  Level Estimated
01:29AM 47.6964 -30.7665 240° Southwest  Level Estimated
01:30AM 47.6353 -30.9200 239° Southwest  Level Estimated
01:31AM 47.5740 -31.0731 239° Southwest  Level Estimated
01:32AM 47.5125 -31.2259 239° Southwest  Level Estimated
01:33AM 47.4507 -31.3783 239° Southwest  Level Estimated
01:34AM 47.3888 -31.5304 239° Southwest  Level Estimated
01:35AM 47.3267 -31.6821 239° Southwest  Level Estimated
01:36AM 47.2644 -31.8334 239° Southwest  Level Estimated
01:37AM 47.2018 -31.9844 239° Southwest  Level Estimated
01:38AM 47.1391 -32.1350 239° Southwest  Level Estimated
01:39AM 47.0762 -32.2853 238° Southwest  Level Estimated
01:40AM 47.0131 -32.4352 238° Southwest  Level Estimated
01:41AM 46.9498 -32.5847 238° Southwest  Level Estimated
01:42AM 46.8862 -32.7339 238° Southwest  Level Estimated
01:43AM 46.8226 -32.8828 238° Southwest  Level Estimated
01:44AM 46.7587 -33.0313 238° Southwest  Level Estimated
01:45AM 46.6946 -33.1794 238° Southwest  Level Estimated
01:46AM 46.6303 -33.3272 238° Southwest  Level Estimated
01:47AM 46.5658 -33.4747 238° Southwest  Level Estimated
01:48AM 46.5012 -33.6217 237° Southwest  Level Estimated
01:49AM 46.4364 -33.7685 237° Southwest  Level Estimated
01:50AM 46.3713 -33.9149 237° Southwest  Level Estimated
01:51AM 46.3061 -34.0609 237° Southwest  Level Estimated
01:52AM 46.2407 -34.2066 237° Southwest  Level Estimated
01:53AM 46.1751 -34.3520 237° Southwest  Level Estimated
01:54AM 46.1094 -34.4970 237° Southwest  Level Estimated
01:55AM 46.0434 -34.6416 237° Southwest  Level Estimated
01:56AM 45.9773 -34.7859 237° Southwest  Level Estimated
01:57AM 45.9110 -34.9299 237° Southwest  Level Estimated
01:58AM 45.8445 -35.0735 236° Southwest  Level Estimated
01:59AM 45.7778 -35.2168 236° Southwest  Level Estimated
02:00AM 45.7109 -35.3597 236° Southwest  Level Estimated
02:01AM 45.6439 -35.5023 236° Southwest  Level Estimated
02:02AM 45.5767 -35.6446 236° Southwest  Level Estimated
02:03AM 45.5093 -35.7865 236° Southwest  Level Estimated
02:04AM 45.4418 -35.9281 236° Southwest  Level Estimated
02:05AM 45.3740 -36.0693 236° Southwest  Level Estimated
02:06AM 45.3061 -36.2102 236° Southwest  Level Estimated
02:07AM 45.2380 -36.3507 236° Southwest  Level Estimated
02:08AM 45.1698 -36.4910 235° Southwest  Level Estimated
02:09AM 45.1014 -36.6309 235° Southwest  Level Estimated
02:10AM 45.0328 -36.7704 235° Southwest  Level Estimated
02:11AM 44.9640 -36.9096 235° Southwest  Level Estimated
02:12AM 44.8951 -37.0485 235° Southwest  Level Estimated
02:13AM 44.8260 -37.1870 235° Southwest  Level Estimated
02:14AM 44.7567 -37.3253 235° Southwest  Level Estimated
02:15AM 44.6873 -37.4632 235° Southwest  Level Estimated
02:16AM 44.6177 -37.6007 235° Southwest  Level Estimated
02:17AM 44.5479 -37.7379 235° Southwest  Level Estimated
02:18AM 44.4780 -37.8748 234° Southwest  Level Estimated
02:19AM 44.4079 -38.0114 234° Southwest  Level Estimated
02:20AM 44.3377 -38.1476 234° Southwest  Level Estimated
02:21AM 44.2672 -38.2835 234° Southwest  Level Estimated
02:22AM 44.1967 -38.4191 234° Southwest  Level Estimated
02:23AM 44.1259 -38.5544 234° Southwest  Level Estimated
02:24AM 44.0550 -38.6893 234° Southwest  Level Estimated
02:25AM 43.9840 -38.8239 234° Southwest  Level Estimated
02:26AM 43.9128 -38.9582 234° Southwest  Level Estimated
02:27AM 43.8414 -39.0922 234° Southwest  Level Estimated
02:28AM 43.7699 -39.2259 233° Southwest  Level Estimated
02:29AM 43.6982 -39.3592 233° Southwest  Level Estimated
02:30AM 43.6264 -39.4922 233° Southwest  Level Estimated
02:31AM 43.5544 -39.6249 233° Southwest  Level Estimated
02:31AM 44.0000 -40.0000 235° Southwest 432 497 34,000  Level New York Oceanic (ODAPS)
02:33AM 43.8500 -40.3000 235° Southwest 432 497 34,000  Level New York Oceanic (ODAPS)
02:42AM 43.1667 -41.6000 234° Southwest 430 495 34,000  Level New York Oceanic (ODAPS)
02:52AM 42.4833 -42.8500 233° Southwest 429 494 34,000  Level New York Oceanic (ODAPS)
03:01AM 41.8000 -44.0667 232° Southwest 427 491 34,000  Level New York Oceanic (ODAPS)
03:11AM 41.1000 -45.2500 231° Southwest 424 488 34,000  Level New York Oceanic (ODAPS)
03:21AM 40.4000 -46.3833 231° Southwest 421 484 34,000  Level New York Oceanic (ODAPS)
03:30AM 39.7000 -47.5000 230° Southwest 421 484 34,000  Level New York Oceanic (ODAPS)
03:40AM 38.9667 -48.6000 229° Southwest 423 487 34,000  Level New York Oceanic (ODAPS)
03:49AM 38.2167 -49.6833 229° Southwest 404 465 34,000  Level New York Oceanic (ODAPS)
03:52AM 38.0000 -50.0000 221° Southwest 438 504 34,000  Level New York Oceanic (ODAPS)
03:59AM 37.3833 -50.6667 220° Southwest 441 507 34,000  Level New York Oceanic (ODAPS)
04:09AM 36.4833 -51.6167 220° Southwest 440 506 34,000  Level New York Oceanic (ODAPS)
04:18AM 35.5667 -52.5500 219° Southwest 441 507 34,000  Level New York Oceanic (ODAPS)
04:28AM 34.6333 -53.4667 218° Southwest 448 516 34,000  Level New York Oceanic (ODAPS)
04:37AM 33.6667 -54.3833 218° Southwest 451 519 34,000  Level New York Oceanic (ODAPS)
04:45AM 33.0000 -55.0000 222° Southwest 477 549 34,000  Level New York Oceanic (ODAPS)
04:47AM 32.7000 -55.3167 222° Southwest 478 550 34,000  Level New York Oceanic (ODAPS)
04:57AM 31.7833 -56.2833 221° Southwest 472 543 34,000  Level New York Oceanic (ODAPS)
05:06AM 30.8667 -57.2167 221° Southwest 468 539 34,000  Level New York Oceanic (ODAPS)
05:16AM 29.9667 -58.1167 220° Southwest 463 533 34,000 60 Level New York Oceanic (ODAPS)
05:25AM 29.0000 -59.0500 220° Southwest 481 554 36,000 60 Climbing New York Oceanic (ODAPS)
05:35AM 28.0000 -60.0000 221° Southwest 465 535 36,000  Level New York Oceanic (ODAPS)
05:45AM 27.0000 -60.9833 221° Southwest 463 533 36,000  Level New York Oceanic (ODAPS)
05:54AM 26.0000 -61.9500 220° Southwest 467 537 36,000  Level New York Oceanic (ODAPS)
06:04AM 24.9667 -62.9167 220° Southwest 465 535 36,000  Level New York Oceanic (ODAPS)
06:13AM 23.9833 -63.8167 220° Southwest 454 522 36,000  Level New York Oceanic (ODAPS)
06:23AM 23.0167 -64.7000 219° Southwest 453 521 36,000  Level New York Oceanic (ODAPS)
06:30AM 22.3167 -65.3000 219° Southwest 370 426 36,000  Level San Juan Center
06:31AM 22.2431 -65.3787 219° Southwest 453 521 36,000  Level FlightAware Transoceanic
06:31AM 22.1667 -65.4333 219° Southwest 530 610 36,000  Level San Juan Center
06:32AM 22.1462 -65.4630 219° Southwest 453 521 36,000  Level FlightAware Transoceanic
06:32AM 22.1000 -65.5000 223° Southwest 470 541 36,000  Level San Juan Center
06:33AM 22.0492 -65.5472 219° Southwest 453 521 36,000  Level FlightAware Transoceanic
06:33AM 21.9833 -65.6000 218° Southwest 460 529 36,000  Level San Juan Center
06:34AM 21.9522 -65.6313 219° Southwest 453 521 36,000  Level FlightAware Transoceanic
06:34AM 21.8833 -65.6833 218° Southwest 460 529 36,000  Level San Juan Center
06:35AM 21.8552 -65.7153 219° Southwest 453 521 36,000  Level FlightAware Transoceanic
06:35AM 21.7833 -65.7667 218° Southwest 480 552 36,000  Level San Juan Center
06:36AM 21.7000 -65.8667 228° Southwest 460 529 36,000  Level San Juan Center
06:37AM 21.6000 -65.9167 205° Southwest 510 587 36,000  Level San Juan Center
06:38AM 21.5000 -66.0000 218° Southwest 430 495 36,000  Level San Juan Center
06:39AM 21.4167 -66.1000 228° Southwest 510 587 36,000  Level San Juan Center
06:40AM 21.3333 -66.1833 223° Southwest 430 495 36,000  Level San Juan Center
06:41AM 21.2500 -66.2833 228° Southwest 440 506 36,000  Level San Juan Center
06:42AM 21.1833 -66.3833 234° Southwest 460 529 36,000  Level San Juan Center
06:43AM 21.1000 -66.4833 228° Southwest 430 495 36,000  Level San Juan Center
06:44AM 21.0167 -66.5833 228° Southwest 420 483 36,000  Level San Juan Center
06:46AM 20.9333 -66.6667 223° Southwest 430 495 36,000  Level San Juan Center
06:47AM 20.8667 -66.7667 235° Southwest 440 506 36,000  Level San Juan Center
06:48AM 20.7833 -66.8667 228° Southwest 440 506 36,000  Level San Juan Center
06:49AM 20.7000 -66.9667 228° Southwest 430 495 36,000  Level San Juan Center
06:50AM 20.6167 -67.0667 228° Southwest 440 506 36,000  Level San Juan Center
06:51AM 20.5333 -67.1667 228° Southwest 440 506 36,000 -540 Level San Juan Center
06:52AM 20.4500 -67.2667 228° Southwest 440 506 35,000 -960 Descending San Juan Center
06:53AM 20.3833 -67.3500 230° Southwest 440 506 34,100 -1,020 Descending San Juan Center
06:54AM 20.3000 -67.4500 228° Southwest 430 495 33,000 -1,200 Descending San Juan Center
06:55AM 20.2167 -67.5500 228° Southwest 440 506 31,800 -1,500 Descending San Juan Center
06:56AM 20.1333 -67.6500 228° Southwest 450 518 30,000 -1,800 Descending San Juan Center
06:57AM 20.0500 -67.7500 228° Southwest 440 506 28,300 -1,740 Descending San Juan Center
06:58AM 19.9667 -67.8333 223° Southwest 430 495 26,600 -1,740 Descending San Juan Center
06:59AM 19.9000 -67.9333 235° Southwest 420 483 24,800 -1,800 Descending San Juan Center
07:00AM 19.8167 -68.0167 223° Southwest 410 472 23,100 -1,260 Descending San Juan Center
07:06AM 19.3763 -68.5652 229° Southwest 339 390 15,900 -1,140 Descending FlightAware ADS-B (MDJB / JBQ)
07:06AM 19.3408 -68.5987 204° Southwest 337 388 15,700 -420 Descending FlightAware ADS-B (MDJB / JBQ)